createdAt,value
2023-03-29T00:00:23.000Z,9.443770
2023-03-29T00:01:35.849Z,9.443756
2023-03-29T00:02:24.143Z,9.443743
2023-03-29T00:03:23.062Z,9.443807
2023-03-29T00:04:22.993Z,9.443776
2023-03-29T00:05:23.096Z,9.443810
2023-03-29T00:06:22.914Z,9.443786
2023-03-29T00:07:22.943Z,9.443803
2023-03-29T00:08:22.921Z,9.443784
2023-03-29T00:09:22.929Z,9.443791
2023-03-29T00:10:22.947Z,9.443814
2023-03-29T00:11:22.899Z,9.443805
2023-03-29T00:12:22.872Z,9.443773
2023-03-29T00:13:22.960Z,9.443756
2023-03-29T00:14:22.903Z,9.443734
2023-03-29T00:15:22.887Z,9.443732
2023-03-29T00:16:22.935Z,9.443786
2023-03-29T00:17:22.885Z,9.443802
2023-03-29T00:18:22.887Z,9.443810
2023-03-29T00:19:23.846Z,9.443827
2023-03-29T00:20:22.831Z,9.443846
2023-03-29T00:21:22.828Z,9.443838
2023-03-29T00:22:22.828Z,9.443864
2023-03-29T00:23:22.819Z,9.443864
2023-03-29T00:24:22.817Z,9.444104
2023-03-29T00:25:22.829Z,9.443956
2023-03-29T00:26:22.949Z,9.443790
2023-03-29T00:27:22.820Z,9.443828
2023-03-29T00:28:22.873Z,9.443732
2023-03-29T00:29:22.828Z,9.443743
2023-03-29T00:30:22.796Z,9.443811
2023-03-29T00:31:22.852Z,9.443790
2023-03-29T00:32:22.891Z,9.443811
2023-03-29T00:33:22.790Z,9.443800
2023-03-29T00:34:22.810Z,9.443840
2023-03-29T00:35:22.760Z,9.443844
2023-03-29T00:36:22.752Z,9.443851
2023-03-29T00:37:22.772Z,9.443901
2023-03-29T00:38:22.823Z,9.443804
2023-03-29T00:39:22.727Z,9.443777
2023-03-29T00:40:22.729Z,9.443756
2023-03-29T00:41:22.748Z,9.443798
2023-03-29T00:42:22.715Z,9.443837
2023-03-29T00:43:22.733Z,9.443736
2023-03-29T00:44:22.717Z,9.443723
2023-03-29T00:45:22.724Z,9.443777
2023-03-29T00:46:22.827Z,9.443810
2023-03-29T00:47:22.828Z,9.443838
2023-03-29T00:48:22.676Z,9.443835
2023-03-29T00:49:22.661Z,9.443759
2023-03-29T00:50:22.744Z,9.443769
2023-03-29T00:51:22.628Z,9.443839
2023-03-29T00:52:22.666Z,9.443777
2023-03-29T00:53:22.714Z,9.443831
2023-03-29T00:54:22.657Z,9.443808
2023-03-29T00:55:22.643Z,9.443772
2023-03-29T00:56:22.659Z,9.443884
2023-03-29T00:57:22.786Z,9.443790
2023-03-29T00:58:23.689Z,9.443626
2023-03-29T00:59:22.623Z,9.443753
2023-03-29T01:00:22.687Z,9.443853
2023-03-29T01:01:22.717Z,9.443712
2023-03-29T01:02:22.656Z,9.443592
2023-03-29T01:03:22.811Z,9.443621
2023-03-29T01:04:22.582Z,9.443465
2023-03-29T01:05:22.578Z,9.443419
2023-03-29T01:06:23.582Z,9.443610
2023-03-29T01:07:22.621Z,9.443554
2023-03-29T01:08:22.579Z,9.443610
2023-03-29T01:09:22.566Z,9.443523
2023-03-29T01:10:22.576Z,9.443585
2023-03-29T01:11:22.547Z,9.443455
2023-03-29T01:12:22.549Z,9.443437
2023-03-29T01:13:22.557Z,9.443518
2023-03-29T01:14:22.516Z,9.443627
2023-03-29T01:15:22.538Z,9.443645
2023-03-29T01:16:23.521Z,9.443618
2023-03-29T01:17:22.478Z,9.443671
2023-03-29T01:18:22.510Z,9.443675
2023-03-29T01:19:22.534Z,9.443521
2023-03-29T01:20:22.513Z,9.443458
2023-03-29T01:21:22.467Z,9.443399
2023-03-29T01:22:22.506Z,9.443505
2023-03-29T01:23:22.462Z,9.443603
2023-03-29T01:24:22.438Z,9.443651
2023-03-29T01:25:22.486Z,9.443620
2023-03-29T01:26:22.440Z,9.443555
2023-03-29T01:27:22.434Z,9.443543
2023-03-29T01:28:22.475Z,9.443521
2023-03-29T01:29:23.473Z,9.443521
2023-03-29T01:30:22.423Z,9.443595
2023-03-29T01:31:22.476Z,9.443451
2023-03-29T01:32:22.447Z,9.443479
2023-03-29T01:33:22.386Z,9.443607
2023-03-29T01:34:22.392Z,9.443737
2023-03-29T01:35:22.382Z,9.443697
2023-03-29T01:36:22.440Z,9.443686
2023-03-29T01:37:22.413Z,9.443667
2023-03-29T01:38:22.396Z,9.443617
2023-03-29T01:39:23.358Z,9.443573
2023-03-29T01:40:22.360Z,9.443689
2023-03-29T01:41:22.405Z,9.443635
2023-03-29T01:42:22.829Z,9.443650
2023-03-29T01:43:22.343Z,9.443624
2023-03-29T01:44:22.341Z,9.443570
2023-03-29T01:45:22.350Z,9.443787
2023-03-29T01:46:22.339Z,9.443700
2023-03-29T01:47:22.342Z,9.443707
2023-03-29T01:48:22.279Z,9.443706
2023-03-29T01:49:22.310Z,9.443633
2023-03-29T01:50:22.287Z,9.443706
2023-03-29T01:51:22.325Z,9.443707
2023-03-29T01:52:22.272Z,9.443695
2023-03-29T01:53:22.289Z,9.443663
2023-03-29T01:54:22.303Z,9.443561
2023-03-29T01:55:22.311Z,9.443572
2023-03-29T01:56:22.235Z,9.443581
2023-03-29T01:57:22.397Z,9.443655
2023-03-29T01:58:22.265Z,9.443699
2023-03-29T01:59:22.238Z,9.443675
2023-03-29T02:00:22.254Z,9.443597
2023-03-29T02:01:22.246Z,9.443687
2023-03-29T02:02:22.317Z,9.443692
2023-03-29T02:03:22.301Z,9.443693
2023-03-29T02:04:22.285Z,9.443736
2023-03-29T02:05:22.185Z,9.443620
2023-03-29T02:06:22.194Z,9.443702
2023-03-29T02:07:22.216Z,9.443737
2023-03-29T02:08:22.181Z,9.443644
2023-03-29T02:09:22.211Z,9.443682
2023-03-29T02:10:22.148Z,9.443770
2023-03-29T02:11:22.153Z,9.443884
2023-03-29T02:12:22.179Z,9.443957
2023-03-29T02:13:22.136Z,9.443946
2023-03-29T02:14:22.197Z,9.443890
2023-03-29T02:15:22.138Z,9.443793
2023-03-29T02:16:22.313Z,9.443721
2023-03-29T02:17:22.116Z,9.443850
2023-03-29T02:18:22.096Z,9.443802
2023-03-29T02:19:22.171Z,9.443831
2023-03-29T02:20:22.097Z,9.443823
2023-03-29T02:21:22.126Z,9.443824
2023-03-29T02:22:22.121Z,9.443749
2023-03-29T02:23:22.091Z,9.443791
2023-03-29T02:24:22.133Z,9.443822
2023-03-29T02:25:22.081Z,9.443901
2023-03-29T02:26:22.072Z,9.443969
2023-03-29T02:27:22.082Z,9.443913
2023-03-29T02:28:22.035Z,9.443870
2023-03-29T02:29:22.046Z,9.443871
2023-03-29T02:30:22.033Z,9.443678
2023-03-29T02:31:22.151Z,9.443622
2023-03-29T02:32:22.049Z,9.443645
2023-03-29T02:33:22.012Z,9.443622
2023-03-29T02:34:22.002Z,9.443695
2023-03-29T02:35:22.018Z,9.443636
2023-03-29T02:36:22.089Z,9.443647
2023-03-29T02:37:22.003Z,9.443735
2023-03-29T02:38:22.017Z,9.443689
2023-03-29T02:39:21.978Z,9.443658
2023-03-29T02:40:21.983Z,9.443659
2023-03-29T02:41:22.021Z,9.443651
2023-03-29T02:42:21.994Z,9.443653
2023-03-29T02:43:24.524Z,9.443735
2023-03-29T02:44:21.956Z,9.443731
2023-03-29T02:45:21.979Z,9.443790
2023-03-29T02:46:22.021Z,9.443539
2023-03-29T02:47:22.838Z,9.443496
2023-03-29T02:48:21.940Z,9.443546
2023-03-29T02:49:21.909Z,9.443528
2023-03-29T02:50:21.938Z,9.443612
2023-03-29T02:51:21.907Z,9.443600
2023-03-29T02:52:21.914Z,9.443621
2023-03-29T02:53:21.905Z,9.443661
2023-03-29T02:54:21.885Z,9.443720
2023-03-29T02:55:21.916Z,9.443750
2023-03-29T02:56:21.914Z,9.443749
2023-03-29T02:57:22.892Z,9.443687
2023-03-29T02:58:21.865Z,9.443689
2023-03-29T02:59:21.853Z,9.443672
2023-03-29T03:00:21.835Z,9.443728
2023-03-29T03:01:21.859Z,9.443744
2023-03-29T03:02:21.932Z,9.443781
2023-03-29T03:03:21.931Z,9.443780
2023-03-29T03:04:21.805Z,9.443745
2023-03-29T03:05:21.817Z,9.443705
2023-03-29T03:06:21.810Z,9.443726
2023-03-29T03:07:21.830Z,9.443717
2023-03-29T03:08:21.804Z,9.443809
2023-03-29T03:09:21.812Z,9.443721
2023-03-29T03:10:21.801Z,9.443712
2023-03-29T03:11:21.778Z,9.443679
2023-03-29T03:12:21.750Z,9.443662
2023-03-29T03:13:21.812Z,9.443743
2023-03-29T03:14:21.768Z,9.443774
2023-03-29T03:15:21.842Z,9.443813
2023-03-29T03:16:21.822Z,9.443843
2023-03-29T03:17:21.838Z,9.443791
2023-03-29T03:18:21.725Z,9.443833
2023-03-29T03:19:21.733Z,9.443898
2023-03-29T03:20:21.711Z,9.443854
2023-03-29T03:21:21.723Z,9.443788
2023-03-29T03:22:21.728Z,9.443775
2023-03-29T03:23:21.730Z,9.443729
2023-03-29T03:24:21.695Z,9.443722
2023-03-29T03:25:21.684Z,9.443857
2023-03-29T03:26:21.701Z,9.443798
2023-03-29T03:27:21.685Z,9.443786
2023-03-29T03:28:21.695Z,9.443731
2023-03-29T03:29:21.715Z,9.443776
2023-03-29T03:30:21.680Z,9.443756
2023-03-29T03:31:21.700Z,9.443707
2023-03-29T03:32:21.701Z,9.443701
2023-03-29T03:33:21.650Z,9.443699
2023-03-29T03:34:21.649Z,9.443693
2023-03-29T03:35:21.629Z,9.443763
2023-03-29T03:36:21.612Z,9.443748
2023-03-29T03:37:21.630Z,9.443797
2023-03-29T03:38:21.644Z,9.443820
2023-03-29T03:39:21.580Z,9.443797
2023-03-29T03:40:21.813Z,9.443743
2023-03-29T03:41:21.584Z,9.443690
2023-03-29T03:42:21.567Z,9.443756
2023-03-29T03:43:21.590Z,9.443756
2023-03-29T03:44:21.572Z,9.443689
2023-03-29T03:45:21.629Z,9.443780
2023-03-29T03:46:21.637Z,9.443755
2023-03-29T03:47:21.539Z,9.443738
2023-03-29T03:48:22.530Z,9.443746
2023-03-29T03:49:21.562Z,9.443741
2023-03-29T03:50:21.521Z,9.443706
2023-03-29T03:51:21.584Z,9.443718
2023-03-29T03:52:21.498Z,9.443743
2023-03-29T03:53:21.592Z,9.443671
2023-03-29T03:54:21.504Z,9.443671
2023-03-29T03:55:21.503Z,9.443709
2023-03-29T03:56:21.508Z,9.443674
2023-03-29T03:57:21.509Z,9.443702
2023-03-29T03:58:21.510Z,9.443704
2023-03-29T03:59:21.438Z,9.443707
2023-03-29T04:00:21.532Z,9.443721
2023-03-29T04:01:21.495Z,9.443760
2023-03-29T04:02:21.466Z,9.443795
2023-03-29T04:03:22.752Z,9.443816
2023-03-29T04:04:21.520Z,9.443815
2023-03-29T04:05:21.434Z,9.443768
2023-03-29T04:06:21.480Z,9.443791
2023-03-29T04:07:21.421Z,9.443818
2023-03-29T04:08:21.458Z,9.443810
2023-03-29T04:09:21.381Z,9.443794
2023-03-29T04:10:21.384Z,9.443816
2023-03-29T04:11:21.385Z,9.443804
2023-03-29T04:12:21.494Z,9.443815
2023-03-29T04:13:21.365Z,9.443846
2023-03-29T04:14:21.388Z,9.443870
2023-03-29T04:15:21.346Z,9.443837
2023-03-29T04:16:21.506Z,9.443801
2023-03-29T04:17:21.376Z,9.443786
2023-03-29T04:18:21.445Z,9.443777
2023-03-29T04:19:21.813Z,9.443880
2023-03-29T04:20:21.333Z,9.443932
2023-03-29T04:21:21.498Z,9.443957
2023-03-29T04:22:22.314Z,9.443888
2023-03-29T04:23:21.345Z,9.443816
2023-03-29T04:24:21.304Z,9.443789
2023-03-29T04:25:21.394Z,9.443757
2023-03-29T04:26:21.303Z,9.443685
2023-03-29T04:27:21.288Z,9.443680
2023-03-29T04:28:21.332Z,9.443690
2023-03-29T04:29:21.299Z,9.443780
2023-03-29T04:30:21.277Z,9.443793
2023-03-29T04:31:21.279Z,9.443797
2023-03-29T04:32:21.331Z,9.443696
2023-03-29T04:33:21.267Z,9.443703
2023-03-29T04:34:21.278Z,9.443662
2023-03-29T04:35:21.234Z,9.443648
2023-03-29T04:36:21.245Z,9.443670
2023-03-29T04:37:21.221Z,9.443686
2023-03-29T04:38:21.235Z,9.443765
2023-03-29T04:39:21.208Z,9.443757
2023-03-29T04:40:21.244Z,9.443691
2023-03-29T04:41:21.221Z,9.443667
2023-03-29T04:42:21.304Z,9.443603
2023-03-29T04:43:21.190Z,9.443608
2023-03-29T04:44:21.262Z,9.443510
2023-03-29T04:45:21.218Z,9.443486
2023-03-29T04:46:21.228Z,9.443622
2023-03-29T04:47:21.172Z,9.443641
2023-03-29T04:48:21.167Z,9.443653
2023-03-29T04:49:21.205Z,9.443737
2023-03-29T04:50:21.264Z,9.443788
2023-03-29T04:51:21.148Z,9.443779
2023-03-29T04:52:23.183Z,9.443751
2023-03-29T04:53:21.146Z,9.443710
2023-03-29T04:54:21.145Z,9.443668
2023-03-29T04:55:21.177Z,9.443690
2023-03-29T04:56:21.108Z,9.443715
2023-03-29T04:57:21.150Z,9.443706
2023-03-29T04:58:23.646Z,9.443713
2023-03-29T04:59:22.093Z,9.443736
2023-03-29T05:00:21.128Z,9.443751
2023-03-29T05:01:21.110Z,9.443754
2023-03-29T05:02:21.081Z,9.443812
2023-03-29T05:03:21.931Z,9.443749
2023-03-29T05:04:22.043Z,9.443708
2023-03-29T05:05:21.056Z,9.443736
2023-03-29T05:06:21.043Z,9.443815
2023-03-29T05:07:21.013Z,9.443702
2023-03-29T05:08:21.030Z,9.443749
2023-03-29T05:09:21.014Z,9.443776
2023-03-29T05:10:21.009Z,9.443769
2023-03-29T05:11:21.023Z,9.443717
2023-03-29T05:12:21.004Z,9.443618
2023-03-29T05:13:20.968Z,9.443746
2023-03-29T05:14:20.988Z,9.443755
2023-03-29T05:15:20.972Z,9.443758
2023-03-29T05:16:21.075Z,9.443715
2023-03-29T05:17:21.004Z,9.443653
2023-03-29T05:18:20.983Z,9.443657
2023-03-29T05:19:20.964Z,9.443738
2023-03-29T05:20:21.009Z,9.443708
2023-03-29T05:21:20.986Z,9.443666
2023-03-29T05:22:20.966Z,9.443731
2023-03-29T05:23:20.957Z,9.443687
2023-03-29T05:24:20.930Z,9.443737
2023-03-29T05:25:20.886Z,9.443666
2023-03-29T05:26:21.014Z,9.443680
2023-03-29T05:27:20.941Z,9.443657
2023-03-29T05:28:20.882Z,9.443764
2023-03-29T05:29:20.954Z,9.443827
2023-03-29T05:30:20.899Z,9.443631
2023-03-29T05:31:20.936Z,9.443499
2023-03-29T05:32:20.946Z,9.443482
2023-03-29T05:33:20.884Z,9.443718
2023-03-29T05:34:20.864Z,9.443766
2023-03-29T05:35:20.876Z,9.443737
2023-03-29T05:36:20.844Z,9.443763
2023-03-29T05:37:20.866Z,9.443666
2023-03-29T05:38:20.840Z,9.443671
2023-03-29T05:39:20.867Z,9.443699
2023-03-29T05:40:20.883Z,9.443706
2023-03-29T05:41:20.854Z,9.443686
2023-03-29T05:42:20.804Z,9.443677
2023-03-29T05:43:20.801Z,9.443712
2023-03-29T05:44:20.805Z,9.443722
2023-03-29T05:45:20.830Z,9.443729
2023-03-29T05:46:20.778Z,9.443745
2023-03-29T05:47:20.784Z,9.443707
2023-03-29T05:48:20.772Z,9.443632
2023-03-29T05:49:20.750Z,9.443644
2023-03-29T05:50:20.782Z,9.443686
2023-03-29T05:51:20.790Z,9.443694
2023-03-29T05:52:20.742Z,9.443672
2023-03-29T05:53:20.712Z,9.443665
2023-03-29T05:54:20.761Z,9.443709
2023-03-29T05:55:20.789Z,9.443660
2023-03-29T05:56:20.744Z,9.443729
2023-03-29T05:57:20.825Z,9.443688
2023-03-29T05:58:20.737Z,9.443640
2023-03-29T05:59:20.745Z,9.443718
2023-03-29T06:00:20.677Z,9.443705
2023-03-29T06:01:20.704Z,9.443671
2023-03-29T06:02:20.790Z,9.443709
2023-03-29T06:03:21.860Z,9.443688
2023-03-29T06:04:21.772Z,9.443687
2023-03-29T06:05:20.632Z,9.443698
2023-03-29T06:06:20.691Z,9.443708
2023-03-29T06:07:20.663Z,9.443657
2023-03-29T06:08:20.633Z,9.443615
2023-03-29T06:09:20.636Z,9.443574
2023-03-29T06:10:20.610Z,9.443622
2023-03-29T06:11:20.677Z,9.443597
2023-03-29T06:12:20.630Z,9.443535
2023-03-29T06:13:20.581Z,9.443534
2023-03-29T06:14:20.580Z,9.443732
2023-03-29T06:15:20.650Z,9.443624
2023-03-29T06:16:20.694Z,9.443683
2023-03-29T06:17:20.812Z,9.443604
2023-03-29T06:18:20.615Z,9.443680
2023-03-29T06:19:20.564Z,9.443621
2023-03-29T06:20:20.629Z,9.443600
2023-03-29T06:21:20.868Z,9.443512
2023-03-29T06:22:20.561Z,9.443589
2023-03-29T06:23:20.532Z,9.443636
2023-03-29T06:24:21.541Z,9.443663
2023-03-29T06:25:20.586Z,9.443459
2023-03-29T06:26:20.563Z,9.443462
2023-03-29T06:27:20.528Z,9.443534
2023-03-29T06:28:20.527Z,9.443591
2023-03-29T06:29:20.492Z,9.443719
2023-03-29T06:30:20.524Z,9.443694
2023-03-29T06:31:20.677Z,9.443687
2023-03-29T06:32:20.495Z,9.443786
2023-03-29T06:33:20.537Z,9.443829
2023-03-29T06:34:20.482Z,9.443805
2023-03-29T06:35:20.522Z,9.443722
2023-03-29T06:36:20.609Z,9.443694
2023-03-29T06:37:20.517Z,9.443676
2023-03-29T06:38:20.495Z,9.443754
2023-03-29T06:39:20.525Z,9.443748
2023-03-29T06:40:20.461Z,9.443777
2023-03-29T06:41:20.463Z,9.443683
2023-03-29T06:42:21.765Z,9.443625
2023-03-29T06:43:21.457Z,9.443688
2023-03-29T06:44:20.486Z,9.443582
2023-03-29T06:45:23.220Z,9.443648
2023-03-29T06:46:21.439Z,9.443666
2023-03-29T06:47:20.456Z,9.443676
2023-03-29T06:48:20.430Z,9.443669
2023-03-29T06:49:20.379Z,9.443707
2023-03-29T06:50:20.398Z,9.443728
2023-03-29T06:51:22.657Z,9.443740
2023-03-29T06:52:21.426Z,9.443692
2023-03-29T06:53:20.441Z,9.443688
2023-03-29T06:54:20.431Z,9.443735
2023-03-29T06:55:20.434Z,9.443723
2023-03-29T06:56:20.401Z,9.443738
2023-03-29T06:57:20.346Z,9.443741
2023-03-29T06:58:20.376Z,9.443748
2023-03-29T06:59:20.353Z,9.443753
2023-03-29T07:00:20.320Z,9.443785
2023-03-29T07:01:20.356Z,9.443766
2023-03-29T07:02:20.315Z,9.443700
2023-03-29T07:03:20.384Z,9.443691
2023-03-29T07:04:20.439Z,9.443691
2023-03-29T07:05:20.291Z,9.443756
2023-03-29T07:06:20.374Z,9.443709
2023-03-29T07:07:20.692Z,9.443702
2023-03-29T07:08:20.303Z,9.443714
2023-03-29T07:09:20.334Z,9.443739
2023-03-29T07:10:20.262Z,9.443761
2023-03-29T07:11:20.260Z,9.443757
2023-03-29T07:12:20.268Z,9.443755
2023-03-29T07:13:20.265Z,9.443787
2023-03-29T07:14:20.276Z,9.443709
2023-03-29T07:15:20.243Z,9.443651
2023-03-29T07:16:20.317Z,9.443806
2023-03-29T07:17:20.232Z,9.443797
2023-03-29T07:18:20.392Z,9.443793
2023-03-29T07:19:20.257Z,9.443767
2023-03-29T07:20:20.216Z,9.443705
2023-03-29T07:21:20.240Z,9.443643
2023-03-29T07:22:20.216Z,9.443615
2023-03-29T07:23:20.199Z,9.443622
2023-03-29T07:24:20.242Z,9.443634
2023-03-29T07:25:20.192Z,9.443695
2023-03-29T07:26:29.014Z,9.443666
2023-03-29T07:27:21.194Z,9.443680
2023-03-29T07:28:20.178Z,9.443702
2023-03-29T07:29:20.345Z,9.443790
2023-03-29T07:30:20.162Z,9.443690
2023-03-29T07:31:20.162Z,9.443632
2023-03-29T07:32:20.224Z,9.443591
2023-03-29T07:33:20.294Z,9.443652
2023-03-29T07:34:20.166Z,9.443621
2023-03-29T07:35:20.112Z,9.443537
2023-03-29T07:36:20.166Z,9.443500
2023-03-29T07:37:20.102Z,9.443456
2023-03-29T07:38:20.114Z,9.443514
2023-03-29T07:39:20.117Z,9.443587
2023-03-29T07:40:20.121Z,9.443623
2023-03-29T07:41:20.086Z,9.443709
2023-03-29T07:42:20.144Z,9.443712
2023-03-29T07:43:20.110Z,9.443671
2023-03-29T07:44:20.268Z,9.443689
2023-03-29T07:45:20.140Z,9.443667
2023-03-29T07:46:21.081Z,9.443693
2023-03-29T07:47:20.039Z,9.443402
2023-03-29T07:48:20.071Z,9.443561
2023-03-29T07:49:21.675Z,9.443604
2023-03-29T07:50:21.166Z,9.443673
2023-03-29T07:51:20.003Z,9.443704
2023-03-29T07:52:20.034Z,9.443697
2023-03-29T07:53:20.019Z,9.443682
2023-03-29T07:54:20.008Z,9.443650
2023-03-29T07:55:20.035Z,9.443706
2023-03-29T07:56:20.034Z,9.443603
2023-03-29T07:57:20.022Z,9.443701
2023-03-29T07:58:19.977Z,9.443684
2023-03-29T07:59:19.948Z,9.443646
2023-03-29T08:00:20.069Z,9.443662
2023-03-29T08:01:20.188Z,9.443674
2023-03-29T08:02:19.956Z,9.443673
2023-03-29T08:03:20.049Z,9.443683
2023-03-29T08:04:20.030Z,9.443636
2023-03-29T08:05:29.239Z,9.443666
2023-03-29T08:06:21.972Z,9.443632
2023-03-29T08:07:19.986Z,9.443660
2023-03-29T08:08:19.945Z,9.443683
2023-03-29T08:09:19.917Z,9.443673
2023-03-29T08:10:19.977Z,9.443686
2023-03-29T08:11:20.036Z,9.443696
2023-03-29T08:12:19.901Z,9.443707
2023-03-29T08:13:19.894Z,9.443705
2023-03-29T08:14:19.890Z,9.443659
2023-03-29T08:15:19.925Z,9.443646
2023-03-29T08:16:19.939Z,9.443678
2023-03-29T08:17:19.894Z,9.443673
2023-03-29T08:18:19.860Z,9.443694
2023-03-29T08:19:19.944Z,9.443694
2023-03-29T08:20:19.841Z,9.443670
2023-03-29T08:21:19.841Z,9.443682
2023-03-29T08:22:19.885Z,9.443673
2023-03-29T08:23:19.867Z,9.443692
2023-03-29T08:24:21.005Z,9.443700
2023-03-29T08:25:20.845Z,9.443683
2023-03-29T08:26:19.849Z,9.443677
2023-03-29T08:27:19.813Z,9.443667
2023-03-29T08:28:19.850Z,9.443658
2023-03-29T08:29:19.819Z,9.443691
2023-03-29T08:30:19.759Z,9.443700
2023-03-29T08:31:19.798Z,9.443683
2023-03-29T08:32:19.800Z,9.443690
2023-03-29T08:33:19.956Z,9.443727
2023-03-29T08:34:19.766Z,9.443731
2023-03-29T08:35:19.787Z,9.443688
2023-03-29T08:36:19.828Z,9.443707
2023-03-29T08:37:19.832Z,9.443713
2023-03-29T08:38:19.763Z,9.443644
2023-03-29T08:39:19.769Z,9.443649
2023-03-29T08:40:19.784Z,9.443697
2023-03-29T08:41:19.724Z,9.443728
2023-03-29T08:42:19.677Z,9.443673
2023-03-29T08:43:19.724Z,9.443685
2023-03-29T08:44:19.686Z,9.443629
2023-03-29T08:45:19.670Z,9.443654
2023-03-29T08:46:19.713Z,9.443671
2023-03-29T08:47:19.640Z,9.443686
2023-03-29T08:48:19.684Z,9.443671
2023-03-29T08:49:19.737Z,9.443636
2023-03-29T08:50:19.998Z,9.443686
2023-03-29T08:51:19.629Z,9.443673
2023-03-29T08:52:19.667Z,9.443795
2023-03-29T08:53:19.646Z,9.443603
2023-03-29T08:54:19.610Z,9.443696
2023-03-29T08:55:19.629Z,9.443722
2023-03-29T08:56:19.583Z,9.443991
2023-03-29T08:57:19.711Z,9.444067
2023-03-29T08:58:19.632Z,9.443826
2023-03-29T08:59:19.596Z,9.443643
2023-03-29T09:00:19.630Z,9.443521
2023-03-29T09:01:19.595Z,9.443645
2023-03-29T09:02:19.575Z,9.443699
2023-03-29T09:03:19.639Z,9.443669
2023-03-29T09:04:19.667Z,9.443959
2023-03-29T09:05:19.658Z,9.443906
2023-03-29T09:06:19.559Z,9.443586
2023-03-29T09:07:19.573Z,9.443666
2023-03-29T09:08:19.502Z,9.443707
2023-03-29T09:09:19.491Z,9.443548
2023-03-29T09:10:19.521Z,9.443513
2023-03-29T09:11:19.499Z,9.443716
2023-03-29T09:12:19.512Z,9.443584
2023-03-29T09:13:19.538Z,9.443941
2023-03-29T09:14:19.525Z,9.443855
2023-03-29T09:15:19.525Z,9.443848
2023-03-29T09:16:19.503Z,9.443695
2023-03-29T09:17:19.490Z,9.443784
2023-03-29T09:18:19.502Z,9.443657
2023-03-29T09:19:19.468Z,9.443784
2023-03-29T09:20:20.439Z,9.443755
2023-03-29T09:21:19.425Z,9.443754
2023-03-29T09:22:19.446Z,9.443697
2023-03-29T09:23:19.493Z,9.443733
2023-03-29T09:24:19.383Z,9.443690
2023-03-29T09:25:19.381Z,9.443781
2023-03-29T09:26:19.497Z,9.443847
2023-03-29T09:27:19.376Z,9.443710
2023-03-29T09:28:19.378Z,9.443828
2023-03-29T09:29:19.362Z,9.443932
2023-03-29T09:30:19.387Z,9.443842
2023-03-29T09:31:19.406Z,9.443841
2023-03-29T09:32:19.383Z,9.443825
2023-03-29T09:33:19.344Z,9.443830
2023-03-29T09:34:19.405Z,9.443798
2023-03-29T09:35:52.827Z,9.443867
2023-03-29T09:36:51.821Z,9.443886
2023-03-29T09:37:53.831Z,9.443869
2023-03-29T09:38:19.333Z,9.443769
2023-03-29T09:39:52.910Z,9.443914
2023-03-29T09:40:19.294Z,9.443794
2023-03-29T09:41:52.743Z,9.443853
2023-03-29T09:42:52.729Z,9.443884
2023-03-29T09:43:55.408Z,9.443741
2023-03-29T09:44:30.260Z,9.443736
2023-03-29T09:45:21.268Z,9.443742
2023-03-29T09:46:19.432Z,9.443736
2023-03-29T09:47:19.255Z,9.443678
2023-03-29T09:48:19.285Z,9.443714
2023-03-29T09:49:19.241Z,9.443750
2023-03-29T09:50:30.305Z,9.443763
2023-03-29T09:51:21.210Z,9.443821
2023-03-29T09:52:19.218Z,9.443789
2023-03-29T09:53:19.226Z,9.443644
2023-03-29T09:54:19.222Z,9.443639
2023-03-29T09:55:19.216Z,9.443641
2023-03-29T09:56:19.184Z,9.443737
2023-03-29T09:57:19.252Z,9.443606
2023-03-29T09:58:19.200Z,9.443650
2023-03-29T09:59:19.280Z,9.443655
2023-03-29T10:00:19.180Z,9.443627
2023-03-29T10:01:19.374Z,9.443681
2023-03-29T10:02:19.175Z,9.443682
2023-03-29T10:03:19.159Z,9.443711
2023-03-29T10:04:19.206Z,9.443730
2023-03-29T10:05:19.833Z,9.443709
2023-03-29T10:06:19.149Z,9.443615
2023-03-29T10:07:19.177Z,9.443668
2023-03-29T10:08:19.885Z,9.443648
2023-03-29T10:09:20.115Z,9.443784
2023-03-29T10:10:20.157Z,9.443760
2023-03-29T10:11:19.197Z,9.443758
2023-03-29T10:12:19.097Z,9.443806
2023-03-29T10:13:19.078Z,9.443730
2023-03-29T10:14:19.068Z,9.443757
2023-03-29T10:15:29.146Z,9.443758
2023-03-29T10:16:21.168Z,9.443767
2023-03-29T10:17:19.094Z,9.443736
2023-03-29T10:18:19.084Z,9.443823
2023-03-29T10:19:19.090Z,9.443782
2023-03-29T10:20:19.032Z,9.443789
2023-03-29T10:21:19.054Z,9.443734
2023-03-29T10:22:19.057Z,9.443722
2023-03-29T10:23:19.061Z,9.443681
2023-03-29T10:24:19.012Z,9.443710
2023-03-29T10:25:19.018Z,9.443757
2023-03-29T10:26:19.015Z,9.443748
2023-03-29T10:27:19.019Z,9.443732
2023-03-29T10:28:18.965Z,9.443706
2023-03-29T10:29:18.985Z,9.443665
2023-03-29T10:30:18.985Z,9.443663
2023-03-29T10:31:18.991Z,9.443659
2023-03-29T10:32:18.968Z,9.443677
2023-03-29T10:33:18.956Z,9.443628
2023-03-29T10:34:18.999Z,9.443669
2023-03-29T10:35:18.935Z,9.443658
2023-03-29T10:36:18.966Z,9.443643
2023-03-29T10:37:18.959Z,9.443745
2023-03-29T10:38:18.931Z,9.443748
2023-03-29T10:39:18.968Z,9.443813
2023-03-29T10:40:18.953Z,9.443741
2023-03-29T10:41:18.912Z,9.443769
2023-03-29T10:42:18.944Z,9.443757
2023-03-29T10:43:18.937Z,9.443732
2023-03-29T10:44:18.911Z,9.443706
2023-03-29T10:45:18.911Z,9.443713
2023-03-29T10:46:18.924Z,9.443693
2023-03-29T10:47:18.914Z,9.443694
2023-03-29T10:48:18.896Z,9.443690
2023-03-29T10:49:18.870Z,9.443674
2023-03-29T10:50:18.902Z,9.443727
2023-03-29T10:51:18.868Z,9.443703
2023-03-29T10:52:18.862Z,9.443736
2023-03-29T10:53:18.833Z,9.443714
2023-03-29T10:54:18.852Z,9.443710
2023-03-29T10:55:18.835Z,9.443718
2023-03-29T10:56:18.841Z,9.443731
2023-03-29T10:57:20.971Z,9.443701
2023-03-29T10:58:18.842Z,9.443707
2023-03-29T10:59:18.856Z,9.443817
2023-03-29T11:00:18.948Z,9.443854
2023-03-29T11:01:18.904Z,9.443794
2023-03-29T11:02:18.835Z,9.443754
2023-03-29T11:03:21.014Z,9.443731
2023-03-29T11:04:19.741Z,9.443709
2023-03-29T11:05:18.779Z,9.443758
2023-03-29T11:06:18.759Z,9.443748
2023-03-29T11:07:18.745Z,9.443761
2023-03-29T11:08:18.731Z,9.443725
2023-03-29T11:09:19.749Z,9.443751
2023-03-29T11:10:18.749Z,9.443745
2023-03-29T11:11:18.742Z,9.443675
2023-03-29T11:12:18.729Z,9.443547
2023-03-29T11:13:18.736Z,9.443676
2023-03-29T11:14:18.729Z,9.443683
2023-03-29T11:15:18.689Z,9.443629
2023-03-29T11:16:18.797Z,9.443693
2023-03-29T11:17:18.685Z,9.443753
2023-03-29T11:18:18.702Z,9.443798
2023-03-29T11:19:18.679Z,9.443749
2023-03-29T11:20:18.667Z,9.443738
2023-03-29T11:21:18.713Z,9.443735
2023-03-29T11:22:18.652Z,9.443804
2023-03-29T11:23:19.435Z,9.443770
2023-03-29T11:24:18.666Z,9.443879
2023-03-29T11:25:18.681Z,9.444039
2023-03-29T11:26:18.629Z,9.444056
2023-03-29T11:27:18.606Z,9.444133
2023-03-29T11:28:18.642Z,9.443974
2023-03-29T11:29:18.796Z,9.443962
2023-03-29T11:30:18.641Z,9.443954
2023-03-29T11:31:18.685Z,9.444028
2023-03-29T11:32:18.582Z,9.444048
2023-03-29T11:33:18.565Z,9.444121
2023-03-29T11:34:18.563Z,9.443974
2023-03-29T11:35:18.615Z,9.444170
2023-03-29T11:36:19.439Z,9.444383
2023-03-29T11:37:18.535Z,9.444802
2023-03-29T11:38:18.619Z,9.444662
2023-03-29T11:39:18.582Z,9.443764
2023-03-29T11:40:18.525Z,9.443705
2023-03-29T11:41:18.550Z,9.443715
2023-03-29T11:42:18.526Z,9.443768
2023-03-29T11:43:18.514Z,9.443764
2023-03-29T11:44:18.527Z,9.443780